createdAt,value
2023-05-26T00:01:31.915Z,99305.38
2023-05-26T00:04:00.108Z,99314.88
2023-05-26T00:06:27.230Z,99303.41
2023-05-26T00:09:02.810Z,99311.16
2023-05-26T00:11:30.080Z,99313.03
2023-05-26T00:13:57.581Z,99318.16
2023-05-26T00:16:24.612Z,99302.22
2023-05-26T00:18:51.657Z,99308.44
2023-05-26T00:21:18.544Z,99299.66
2023-05-26T00:23:46.380Z,99299.81
2023-05-26T00:26:13.398Z,99307.91
2023-05-26T00:28:40.300Z,99306.09
2023-05-26T00:31:07.334Z,99291.09
2023-05-26T00:33:34.245Z,99290.34
2023-05-26T00:36:01.192Z,99293.03
2023-05-26T00:38:28.271Z,99295.59
2023-05-26T00:40:55.587Z,99295.53
2023-05-26T00:43:22.669Z,99294.69
2023-05-26T00:45:49.537Z,99298.28
2023-05-26T00:48:16.551Z,99308.88
2023-05-26T00:50:43.706Z,99300.25
2023-05-26T00:53:12.986Z,99302.25
2023-05-26T00:55:41.221Z,99303.47
2023-05-26T00:58:08.320Z,99304.25
2023-05-26T01:03:15.749Z,99297.94
2023-05-26T01:05:42.789Z,99295.25
2023-05-26T01:08:09.803Z,99303.16
2023-05-26T01:10:36.898Z,99296.97
2023-05-26T01:13:10.141Z,99301.25
2023-05-26T01:15:44.021Z,99292.56
2023-05-26T01:18:18.325Z,99296.03
2023-05-26T01:20:50.470Z,99293.47
2023-05-26T01:23:43.690Z,99290.84
2023-05-26T01:26:24.231Z,99288.97
2023-05-26T01:28:54.679Z,99283.78
2023-05-26T01:31:22.197Z,99276.75
2023-05-26T01:33:49.613Z,99282.00
2023-05-26T01:36:16.804Z,99279.44
2023-05-26T01:38:43.924Z,99275.06
2023-05-26T01:41:14.396Z,99282.06
2023-05-26T01:44:11.982Z,99278.63
2023-05-26T01:46:52.037Z,99276.94
2023-05-26T01:49:23.872Z,99275.16
2023-05-26T01:51:59.745Z,99276.91
2023-05-26T01:54:29.525Z,99271.69
2023-05-26T01:56:58.103Z,99269.91
2023-05-26T01:59:25.872Z,99277.84
2023-05-26T02:01:53.012Z,99279.66
2023-05-26T02:04:20.504Z,99281.44
2023-05-26T02:06:48.285Z,99288.41
2023-05-26T02:09:15.694Z,99271.84
2023-05-26T02:11:42.838Z,99281.44
2023-05-26T02:14:09.879Z,99280.69
2023-05-26T02:16:37.489Z,99282.47
2023-05-26T02:19:04.772Z,99280.72
2023-05-26T02:21:32.749Z,99290.41
2023-05-26T02:23:59.649Z,99290.47
2023-05-26T02:26:27.342Z,99300.00
2023-05-26T02:28:56.686Z,99298.50
2023-05-26T02:31:24.277Z,99294.13
2023-05-26T02:33:51.820Z,99297.50
2023-05-26T02:36:19.356Z,99301.97
2023-05-26T02:38:46.402Z,99300.47
2023-05-26T02:41:13.408Z,99293.38
2023-05-26T02:43:41.164Z,99303.81
2023-05-26T02:46:08.432Z,99302.03
2023-05-26T02:48:35.692Z,99299.47
2023-05-26T02:51:03.278Z,99302.19
2023-05-26T02:53:31.142Z,99299.63
2023-05-26T02:55:58.147Z,99302.19
2023-05-26T02:58:25.312Z,99305.84
2023-05-26T03:00:53.906Z,99300.63
2023-05-26T03:03:21.091Z,99292.88
2023-05-26T03:05:48.499Z,99303.69
2023-05-26T03:08:16.167Z,99295.34
2023-05-26T03:10:45.069Z,99299.84
2023-05-26T03:13:12.412Z,99296.31
2023-05-26T03:15:40.522Z,99300.53
2023-05-26T03:18:08.112Z,99304.00
2023-05-26T03:20:35.328Z,99305.63
2023-05-26T03:23:03.299Z,99290.66
2023-05-26T03:25:30.500Z,99304.44
2023-05-26T03:27:57.713Z,99306.09
2023-05-26T03:30:24.770Z,99306.88
2023-05-26T03:32:51.725Z,99310.28
2023-05-26T03:35:21.951Z,99311.06
2023-05-26T03:37:50.336Z,99305.78
2023-05-26T03:40:17.507Z,99311.72
2023-05-26T03:42:44.693Z,99313.47
2023-05-26T03:45:13.934Z,99311.63
2023-05-26T03:47:40.955Z,99308.94
2023-05-26T03:50:08.419Z,99310.50
2023-05-26T03:52:35.480Z,99306.91
2023-05-26T03:55:02.814Z,99311.97
2023-05-26T03:57:30.046Z,99309.97
2023-05-26T03:59:57.124Z,99315.03
2023-05-26T04:02:24.210Z,99316.81
2023-05-26T04:04:51.248Z,99319.09
2023-05-26T04:07:18.103Z,99313.53
2023-05-26T04:09:44.975Z,99311.47
2023-05-26T04:12:11.988Z,99307.63
2023-05-26T04:14:39.020Z,99305.59
2023-05-26T04:17:05.955Z,99307.00
2023-05-26T04:19:32.933Z,99310.44
2023-05-26T04:21:59.781Z,99314.53
2023-05-26T04:24:28.274Z,99317.34
2023-05-26T04:26:55.450Z,99313.88
2023-05-26T04:29:22.354Z,99313.88
2023-05-26T04:31:49.393Z,99322.59
2023-05-26T04:34:16.384Z,99321.59
2023-05-26T04:36:44.011Z,99313.59
2023-05-26T04:39:11.412Z,99324.88
2023-05-26T04:41:39.925Z,99318.44
2023-05-26T04:44:06.986Z,99315.34
2023-05-26T04:46:39.097Z,99311.16
2023-05-26T04:49:08.578Z,99309.00
2023-05-26T04:51:37.049Z,99312.91
2023-05-26T04:54:04.011Z,99316.44
2023-05-26T04:56:30.932Z,99316.47
2023-05-26T04:58:57.885Z,99315.72
2023-05-26T05:01:24.854Z,99318.91
2023-05-26T05:03:52.004Z,99316.94
2023-05-26T05:06:18.927Z,99320.56
2023-05-26T05:08:45.937Z,99321.41
2023-05-26T05:11:13.521Z,99320.28
2023-05-26T05:13:40.500Z,99317.34
2023-05-26T05:16:07.773Z,99316.13
2023-05-26T05:18:34.741Z,99313.81
2023-05-26T05:21:02.547Z,99317.72
2023-05-26T05:23:31.853Z,99316.72
2023-05-26T05:25:58.821Z,99319.69
2023-05-26T05:28:25.742Z,99317.53
2023-05-26T05:30:52.720Z,99314.09
2023-05-26T05:33:19.918Z,99316.13
2023-05-26T05:35:47.225Z,99323.16
2023-05-26T05:38:14.164Z,99321.47
2023-05-26T05:40:45.857Z,99317.78
2023-05-26T05:43:13.036Z,99324.00
2023-05-26T05:45:39.942Z,99327.25
2023-05-26T05:48:07.062Z,99326.69
2023-05-26T05:50:34.012Z,99325.81
2023-05-26T05:53:01.026Z,99326.34
2023-05-26T05:55:28.028Z,99322.97
2023-05-26T05:57:55.736Z,99338.25
2023-05-26T06:00:22.948Z,99333.78
2023-05-26T06:02:50.153Z,99329.22
2023-05-26T06:05:17.339Z,99324.00
2023-05-26T06:07:44.236Z,99334.25
2023-05-26T06:10:11.999Z,99326.66
2023-05-26T06:12:38.824Z,99335.28
2023-05-26T06:15:06.240Z,99337.13
2023-05-26T06:17:33.204Z,99346.22
2023-05-26T06:20:00.204Z,99341.97
2023-05-26T06:22:27.092Z,99350.41
2023-05-26T06:24:54.092Z,99345.75
2023-05-26T06:27:20.932Z,99351.56
2023-05-26T06:29:47.779Z,99345.75
2023-05-26T06:32:14.767Z,99350.91
2023-05-26T06:34:41.691Z,99348.75
2023-05-26T06:37:08.637Z,99350.75
2023-05-26T06:39:36.434Z,99353.97
2023-05-26T06:42:03.517Z,99355.56
2023-05-26T06:44:30.798Z,99345.41
2023-05-26T06:46:57.904Z,99351.22
2023-05-26T06:49:28.841Z,99356.44
2023-05-26T06:51:55.848Z,99345.63
2023-05-26T06:54:23.266Z,99357.66
2023-05-26T06:56:50.565Z,99348.31
2023-05-26T06:59:17.676Z,99349.22
2023-05-26T07:01:44.756Z,99338.94
2023-05-26T07:04:12.003Z,99348.63
2023-05-26T07:06:47.385Z,99347.88
2023-05-26T07:09:15.298Z,99346.63
2023-05-26T07:11:42.264Z,99348.75
2023-05-26T07:14:09.209Z,99350.28
2023-05-26T07:16:36.181Z,99352.81
2023-05-26T07:19:03.684Z,99350.16
2023-05-26T07:21:30.803Z,99345.13
2023-05-26T07:23:58.136Z,99349.91
2023-05-26T07:26:25.261Z,99344.56
2023-05-26T07:28:52.551Z,99349.34
2023-05-26T07:31:20.812Z,99339.31
2023-05-26T07:33:49.026Z,99340.34
2023-05-26T07:36:16.269Z,99350.84
2023-05-26T07:38:43.464Z,99349.34
2023-05-26T07:41:10.556Z,99337.31
2023-05-26T07:43:37.784Z,99354.97
2023-05-26T07:46:04.851Z,99346.31
2023-05-26T07:48:31.950Z,99346.66
2023-05-26T07:50:58.983Z,99344.91
2023-05-26T07:53:26.090Z,99345.59
2023-05-26T07:55:53.001Z,99350.00
2023-05-26T07:58:19.929Z,99352.06
2023-05-26T08:00:46.981Z,99355.31
2023-05-26T08:03:14.062Z,99350.47
2023-05-26T08:05:41.258Z,99343.31
2023-05-26T08:08:08.612Z,99352.31
2023-05-26T08:10:35.527Z,99350.38
2023-05-26T08:13:02.464Z,99350.75
2023-05-26T08:15:29.612Z,99348.31
2023-05-26T08:17:56.592Z,99338.13
2023-05-26T08:20:23.725Z,99341.88
2023-05-26T08:22:51.062Z,99339.53
2023-05-26T08:25:17.992Z,99347.63
2023-05-26T08:27:45.406Z,99342.59
2023-05-26T08:30:12.476Z,99341.66
2023-05-26T08:32:39.436Z,99340.44
2023-05-26T08:35:06.589Z,99340.25
2023-05-26T08:37:33.583Z,99341.78
2023-05-26T08:40:00.634Z,99341.13
2023-05-26T08:42:34.608Z,99336.81
2023-05-26T08:45:04.798Z,99336.94
2023-05-26T08:47:41.598Z,99330.72
2023-05-26T08:50:10.118Z,99331.50
2023-05-26T08:52:38.311Z,99324.91
2023-05-26T08:55:07.227Z,99326.28
2023-05-26T08:57:35.699Z,99329.75
2023-05-26T09:00:05.211Z,99325.66
2023-05-26T09:02:32.414Z,99319.31
2023-05-26T09:04:59.644Z,99308.28
2023-05-26T09:07:29.561Z,99313.59
2023-05-26T09:10:25.335Z,99311.63
2023-05-26T09:13:09.449Z,99310.53
2023-05-26T09:15:37.877Z,99316.63
2023-05-26T09:18:06.855Z,99309.47
2023-05-26T09:20:36.286Z,99310.47
2023-05-26T09:23:03.618Z,99309.81
2023-05-26T09:25:37.958Z,99307.50
2023-05-26T09:28:09.732Z,99297.59
2023-05-26T09:30:38.562Z,99296.66
2023-05-26T09:33:09.260Z,99301.03
2023-05-26T09:35:41.804Z,99298.59
2023-05-26T09:38:14.409Z,99289.59
2023-05-26T09:40:51.175Z,99281.97
2023-05-26T09:43:20.622Z,99282.34
2023-05-26T09:45:47.850Z,99277.06
2023-05-26T09:48:16.166Z,99278.84
2023-05-26T09:50:43.367Z,99280.66
2023-05-26T09:53:11.498Z,99276.88
2023-05-26T09:55:40.561Z,99274.66
2023-05-26T09:58:09.421Z,99268.75
2023-05-26T10:00:40.062Z,99268.84
2023-05-26T10:03:12.610Z,99269.63
2023-05-26T10:05:46.568Z,99271.53
2023-05-26T10:08:19.695Z,99268.06
2023-05-26T10:10:49.076Z,99266.06
2023-05-26T10:13:18.372Z,99277.84
2023-05-26T10:15:46.954Z,99282.44
2023-05-26T10:18:14.580Z,99279.31
2023-05-26T10:20:46.791Z,99286.97
2023-05-26T10:23:41.001Z,99267.06
2023-05-26T10:26:25.141Z,99271.22
2023-05-26T10:28:58.345Z,99253.72
2023-05-26T10:31:33.090Z,99260.28
2023-05-26T10:34:00.137Z,99267.16
2023-05-26T10:36:30.235Z,99258.50
2023-05-26T10:38:57.137Z,99260.75
2023-05-26T10:41:34.224Z,99263.34
2023-05-26T10:44:02.172Z,99263.22
2023-05-26T10:47:02.766Z,99262.31
2023-05-26T10:49:36.231Z,99254.16
2023-05-26T10:52:14.890Z,99258.84
2023-05-26T10:54:48.753Z,99248.28
2023-05-26T10:57:32.840Z,99247.28
2023-05-26T11:00:18.374Z,99250.56
2023-05-26T11:02:46.193Z,99240.03
2023-05-26T11:05:33.097Z,99231.22
2023-05-26T11:08:00.413Z,99231.91
2023-05-26T11:10:27.513Z,99233.44
2023-05-26T11:12:59.081Z,99228.50
2023-05-26T11:15:30.062Z,99239.22
2023-05-26T11:18:07.760Z,99232.84
2023-05-26T11:20:34.964Z,99233.50
2023-05-26T11:23:03.184Z,99241.19
2023-05-26T11:25:30.332Z,99243.38
2023-05-26T11:27:57.351Z,99246.81
2023-05-26T11:30:35.060Z,99249.34
2023-05-26T11:33:02.940Z,99248.53
2023-05-26T11:35:30.377Z,99241.81
2023-05-26T11:37:57.706Z,99228.72
2023-05-26T11:40:25.211Z,99234.94
2023-05-26T11:42:56.470Z,99227.44
2023-05-26T11:45:24.604Z,99216.28
2023-05-26T11:47:51.718Z,99208.84
2023-05-26T11:50:20.414Z,99212.59
2023-05-26T11:52:49.598Z,99215.47
2023-05-26T11:55:20.404Z,99221.50
2023-05-26T11:57:49.296Z,99210.06
2023-05-26T12:00:19.548Z,99211.28
2023-05-26T12:02:49.958Z,99217.31
2023-05-26T12:05:38.904Z,99229.50
2023-05-26T12:08:07.806Z,99241.16
2023-05-26T12:10:35.350Z,99251.56
2023-05-26T12:13:02.363Z,99255.59
2023-05-26T12:15:29.481Z,99272.88
2023-05-26T12:17:57.946Z,99262.88
2023-05-26T12:21:07.476Z,99278.22
2023-05-26T12:23:13.309Z,99278.06
2023-05-26T12:25:40.935Z,99310.22
2023-05-26T12:28:07.894Z,99305.53
2023-05-26T12:30:48.391Z,99312.47
2023-05-26T12:33:16.785Z,99308.94
2023-05-26T12:35:43.620Z,99275.84
2023-05-26T12:38:14.414Z,99288.41
2023-05-26T12:40:41.566Z,99285.47
2023-05-26T12:43:08.665Z,99288.38
2023-05-26T12:45:36.219Z,99284.94
2023-05-26T12:48:03.537Z,99298.97
2023-05-26T12:50:30.462Z,99300.78
2023-05-26T12:52:57.330Z,99293.03
2023-05-26T12:55:25.180Z,99288.97
2023-05-26T12:57:52.345Z,99286.56
2023-05-26T13:00:22.726Z,99277.28
2023-05-26T13:02:49.853Z,99275.03
2023-05-26T13:05:18.123Z,99294.25
2023-05-26T13:07:45.030Z,99290.00
2023-05-26T13:10:12.814Z,99283.38
2023-05-26T13:12:42.800Z,99281.13
2023-05-26T13:15:10.350Z,99254.06
2023-05-26T13:17:38.318Z,99251.41
2023-05-26T13:20:06.968Z,99242.00
2023-05-26T13:22:35.193Z,99241.25
2023-05-26T13:25:03.084Z,99232.75
2023-05-26T13:27:29.924Z,99240.03
2023-05-26T13:29:57.223Z,99244.84
2023-05-26T13:32:24.756Z,99272.78
2023-05-26T13:34:51.909Z,99288.16
2023-05-26T13:37:18.872Z,99296.31
2023-05-26T13:39:45.865Z,99305.03
2023-05-26T13:42:13.010Z,99300.72
2023-05-26T13:44:39.971Z,99294.78
2023-05-26T13:47:07.059Z,99289.31
2023-05-26T13:49:33.899Z,99269.56
2023-05-26T13:52:05.383Z,99273.56
2023-05-26T13:54:32.497Z,99267.59
2023-05-26T13:56:59.501Z,99293.16
2023-05-26T13:59:26.478Z,99296.63
2023-05-26T14:01:53.564Z,99285.22
2023-05-26T14:04:20.705Z,99284.00
2023-05-26T14:06:47.743Z,99268.91
2023-05-26T14:09:14.864Z,99281.34
2023-05-26T14:11:41.837Z,99267.97
2023-05-26T14:14:09.016Z,99280.03
2023-05-26T14:16:36.288Z,99269.19
2023-05-26T14:19:07.307Z,99270.13
2023-05-26T14:22:07.643Z,99257.09
2023-05-26T14:24:31.488Z,99264.16
2023-05-26T14:26:58.645Z,99262.53
2023-05-26T14:29:25.527Z,99256.34
2023-05-26T14:31:53.818Z,99255.69
2023-05-26T14:34:21.317Z,99252.09
2023-05-26T14:36:48.396Z,99249.38
2023-05-26T14:39:15.359Z,99246.50
2023-05-26T14:41:43.144Z,99249.06
2023-05-26T14:44:10.136Z,99256.59
2023-05-26T14:46:37.143Z,99254.22
2023-05-26T14:49:04.986Z,99261.28
2023-05-26T14:51:32.370Z,99237.66
2023-05-26T14:53:59.298Z,99242.22
2023-05-26T14:56:28.168Z,99249.63
2023-05-26T14:58:56.393Z,99244.09
2023-05-26T15:01:23.582Z,99233.16
2023-05-26T15:04:12.548Z,99241.28
2023-05-26T15:06:39.671Z,99242.16
2023-05-26T15:09:07.074Z,99253.75
2023-05-26T15:11:35.476Z,99241.16
2023-05-26T15:14:03.127Z,99254.75
2023-05-26T15:16:33.250Z,99259.69
2023-05-26T15:19:02.824Z,99246.94
2023-05-26T15:21:37.839Z,99240.31
2023-05-26T15:24:07.449Z,99255.88
2023-05-26T15:26:35.490Z,99250.16
2023-05-26T15:29:02.592Z,99252.94
2023-05-26T15:31:29.554Z,99246.41
2023-05-26T15:33:56.538Z,99243.00
2023-05-26T15:36:26.119Z,99256.38
2023-05-26T15:38:58.381Z,99249.78
2023-05-26T15:41:29.130Z,99261.91
2023-05-26T15:43:56.968Z,99271.41
2023-05-26T15:46:24.150Z,99270.81
2023-05-26T15:48:51.484Z,99271.66
2023-05-26T15:51:18.480Z,99277.72
2023-05-26T15:53:45.686Z,99281.25
2023-05-26T15:56:12.728Z,99277.88
2023-05-26T15:58:39.618Z,99289.66
2023-05-26T16:01:06.990Z,99283.94
2023-05-26T16:03:34.344Z,99279.56
2023-05-26T16:06:04.318Z,99281.16
2023-05-26T16:08:31.205Z,99285.31
2023-05-26T16:10:59.088Z,99277.25
2023-05-26T16:13:26.286Z,99272.56
2023-05-26T16:15:53.228Z,99273.97
2023-05-26T16:18:20.114Z,99263.19
2023-05-26T16:20:47.074Z,99248.00
2023-05-26T16:23:14.245Z,99258.25
2023-05-26T16:25:41.153Z,99240.38
2023-05-26T16:28:08.497Z,99244.94
2023-05-26T16:30:35.647Z,99239.16
2023-05-26T16:33:02.621Z,99234.78
2023-05-26T16:35:40.579Z,99234.38
2023-05-26T16:38:08.391Z,99228.88
2023-05-26T16:40:35.786Z,99240.44
2023-05-26T16:43:03.546Z,99227.13
2023-05-26T16:45:31.053Z,99229.53
2023-05-26T16:47:58.653Z,99232.88
2023-05-26T16:50:26.259Z,99230.59
2023-05-26T16:52:53.251Z,99220.38
2023-05-26T16:55:20.994Z,99218.09
2023-05-26T16:57:49.981Z,99220.44
2023-05-26T17:00:18.089Z,99218.53
2023-05-26T17:02:45.793Z,99228.06
2023-05-26T17:05:13.341Z,99221.91
2023-05-26T17:07:40.543Z,99228.00
2023-05-26T17:10:09.387Z,99226.28
2023-05-26T17:12:46.995Z,99212.19
2023-05-26T17:15:14.138Z,99209.69
2023-05-26T17:17:41.142Z,99221.91
2023-05-26T17:20:12.460Z,99219.81
2023-05-26T17:22:40.581Z,99231.88
2023-05-26T17:25:08.289Z,99225.06
2023-05-26T17:27:35.205Z,99235.69
2023-05-26T17:30:02.650Z,99227.03
2023-05-26T17:32:29.482Z,99225.41
2023-05-26T17:34:59.300Z,99232.41
2023-05-26T17:37:26.574Z,99217.09
2023-05-26T17:39:53.578Z,99218.81
2023-05-26T17:42:20.904Z,99219.78
2023-05-26T17:44:47.964Z,99235.63
2023-05-26T17:47:14.838Z,99240.81
2023-05-26T17:49:41.932Z,99241.72
2023-05-26T17:52:08.940Z,99252.31
2023-05-26T17:54:35.827Z,99264.81
2023-05-26T17:57:03.443Z,99263.13
2023-05-26T17:59:32.856Z,99282.34
2023-05-26T18:01:59.835Z,99289.41
2023-05-26T18:04:27.419Z,99296.63
2023-05-26T18:06:54.464Z,99294.75
2023-05-26T18:09:21.322Z,99307.28
2023-05-26T18:11:49.867Z,99304.78
2023-05-26T18:14:18.709Z,99314.53
2023-05-26T18:16:45.731Z,99314.53
2023-05-26T18:19:12.723Z,99315.44
2023-05-26T18:21:39.961Z,99319.78
2023-05-26T18:24:07.462Z,99331.19
2023-05-26T18:26:34.593Z,99326.03
2023-05-26T18:29:02.135Z,99338.44
2023-05-26T18:31:30.104Z,99338.47
2023-05-26T18:34:02.172Z,99360.28
2023-05-26T18:36:33.632Z,99351.59
2023-05-26T18:39:00.527Z,99357.78
2023-05-26T18:41:27.906Z,99363.13
2023-05-26T18:43:55.152Z,99370.97
2023-05-26T18:46:22.191Z,99363.16
2023-05-26T18:48:49.313Z,99369.31
2023-05-26T18:51:17.733Z,99386.81
2023-05-26T18:53:44.700Z,99385.97
2023-05-26T18:56:12.937Z,99395.72
2023-05-26T18:58:39.953Z,99404.50
2023-05-26T19:01:07.020Z,99411.53
2023-05-26T19:03:36.192Z,99405.50
2023-05-26T19:06:03.516Z,99403.75
2023-05-26T19:08:30.468Z,99411.56
2023-05-26T19:10:59.681Z,99408.00
2023-05-26T19:13:26.801Z,99408.06
2023-05-26T19:15:53.956Z,99432.41
2023-05-26T19:18:22.326Z,99438.47
2023-05-26T19:20:49.383Z,99451.50
2023-05-26T19:23:16.360Z,99458.47
2023-05-26T19:25:43.433Z,99454.91
2023-05-26T19:28:12.470Z,99458.41
2023-05-26T19:30:44.246Z,99451.47
2023-05-26T19:33:11.266Z,99440.09
2023-05-26T19:35:39.348Z,99447.03
2023-05-26T19:38:06.602Z,99468.75
2023-05-26T19:40:33.774Z,99468.00
2023-05-26T19:43:00.820Z,99452.31
2023-05-26T19:45:28.950Z,99466.28
2023-05-26T19:47:56.008Z,99437.56
2023-05-26T19:50:23.047Z,99448.09
2023-05-26T19:52:50.141Z,99444.59
2023-05-26T19:55:17.657Z,99449.78
2023-05-26T19:57:44.521Z,99447.19
2023-05-26T20:00:11.934Z,99439.34
2023-05-26T20:02:39.531Z,99427.19
2023-05-26T20:05:08.250Z,99437.69
2023-05-26T20:07:37.056Z,99439.44
2023-05-26T20:10:04.545Z,99435.13
2023-05-26T20:12:31.686Z,99431.56
2023-05-26T20:15:00.204Z,99424.59
2023-05-26T20:17:27.256Z,99430.72
2023-05-26T20:20:11.957Z,99428.09
2023-05-26T20:22:42.386Z,99442.94
2023-05-26T20:25:09.772Z,99441.13
2023-05-26T20:27:43.538Z,99440.22
2023-05-26T20:30:10.910Z,99414.16
2023-05-26T20:32:42.751Z,99419.28
2023-05-26T20:35:10.038Z,99409.72
2023-05-26T20:37:37.186Z,99411.63
2023-05-26T20:40:05.210Z,99402.03
2023-05-26T20:42:33.602Z,99402.84
2023-05-26T20:45:02.370Z,99405.38
2023-05-26T20:47:29.301Z,99388.91
2023-05-26T20:49:56.466Z,99389.03
2023-05-26T20:52:23.476Z,99389.66
2023-05-26T20:54:50.584Z,99388.06
2023-05-26T20:57:17.455Z,99391.38
2023-05-26T20:59:44.551Z,99384.59
2023-05-26T21:02:11.560Z,99377.53
2023-05-26T21:04:38.866Z,99368.94
2023-05-26T21:07:05.893Z,99368.97
2023-05-26T21:09:33.129Z,99369.13
2023-05-26T21:12:00.476Z,99367.31
2023-05-26T21:14:27.970Z,99359.38
2023-05-26T21:16:55.345Z,99358.53
2023-05-26T21:19:22.344Z,99359.44
2023-05-26T21:21:50.866Z,99369.19
2023-05-26T21:24:17.975Z,99378.91
2023-05-26T21:26:44.848Z,99377.31
2023-05-26T21:29:12.232Z,99377.53
2023-05-26T21:31:39.349Z,99378.63
2023-05-26T21:34:06.391Z,99372.44
2023-05-26T21:36:33.427Z,99391.59
2023-05-26T21:39:00.695Z,99384.72
2023-05-26T21:41:27.929Z,99383.84
2023-05-26T21:43:54.880Z,99384.59
2023-05-26T21:46:22.125Z,99376.75
2023-05-26T21:48:49.166Z,99379.47
2023-05-26T21:51:16.675Z,99386.34
2023-05-26T21:53:44.421Z,99381.94
2023-05-26T21:56:11.273Z,99384.47
2023-05-26T21:58:38.322Z,99370.56
2023-05-26T22:01:05.342Z,99383.63
2023-05-26T22:03:32.516Z,99390.75
2023-05-26T22:05:59.498Z,99379.47
2023-05-26T22:08:26.507Z,99375.81
2023-05-26T22:10:53.547Z,99374.03
2023-05-26T22:13:20.443Z,99378.47
2023-05-26T22:15:47.537Z,99376.66
2023-05-26T22:18:14.432Z,99378.38
2023-05-26T22:20:41.522Z,99388.78
2023-05-26T22:23:08.495Z,99371.38
2023-05-26T22:25:35.515Z,99368.03
2023-05-26T22:28:02.942Z,99367.38
2023-05-26T22:30:29.860Z,99375.09
2023-05-26T22:32:56.994Z,99378.44
2023-05-26T22:35:23.963Z,99374.03
2023-05-26T22:37:50.869Z,99378.34
2023-05-26T22:40:18.458Z,99382.69
2023-05-26T22:42:45.680Z,99364.34
2023-05-26T22:45:12.711Z,99364.22
2023-05-26T22:47:39.712Z,99355.66
2023-05-26T22:50:07.908Z,99356.41
2023-05-26T22:52:34.855Z,99362.72
2023-05-26T22:55:01.826Z,99352.19
2023-05-26T22:57:28.859Z,99350.31
2023-05-26T22:59:55.780Z,99350.19
2023-05-26T23:02:22.665Z,99341.38
2023-05-26T23:04:49.593Z,99341.44
2023-05-26T23:07:16.484Z,99316.16
2023-05-26T23:09:43.390Z,99321.34
2023-05-26T23:12:10.621Z,99328.44
2023-05-26T23:14:37.808Z,99338.81
2023-05-26T23:17:04.930Z,99351.06
2023-05-26T23:19:32.317Z,99339.75
2023-05-26T23:22:00.442Z,99341.53
2023-05-26T23:24:27.882Z,99347.75
2023-05-26T23:26:57.137Z,99347.69
2023-05-26T23:29:24.139Z,99352.09
2023-05-26T23:34:33.388Z,99360.09
2023-05-26T23:37:00.338Z,99356.69
2023-05-26T23:39:27.654Z,99363.63
2023-05-26T23:41:54.797Z,99363.66
2023-05-26T23:44:21.692Z,99359.28
2023-05-26T23:46:48.747Z,99364.56
2023-05-26T23:49:15.977Z,99364.56
2023-05-26T23:51:42.950Z,99362.81
2023-05-26T23:54:09.944Z,99360.16
2023-05-26T23:56:36.834Z,99363.59
2023-05-26T23:59:03.725Z,99361.03
